Time;durP1;ratioP1;P1;durP2;ratioP2;P2;SDS_P1;SDS_P2;PMS_P1;PMS_P2;Temp;Humidity;BMP_temperature;BMP_pressure;BME280_temperature;BME280_humidity;BME280_pressure;Samples;Min_cycle;Max_cycle;Signal;HPM_P1;HPM_P2
2022/09/18 00:01:27;;;;;;;;;;;;;;;11.64;91.30;101644.22;5095014;28;20031;-34
2022/09/18 00:03:53;;;;;;;;;;;;;;;11.61;91.88;101640.03;5094284;28;19912;-35
2022/09/18 00:06:23;;;;;;;;;;;;;;;11.59;91.47;101642.16;5094274;28;19912;-35
2022/09/18 00:08:51;;;;;;;;;;;;;;;11.58;91.72;101645.91;5094771;28;19985;-35
2022/09/18 00:11:17;;;;;;;;;;;;;;;11.56;91.99;101643.41;5094388;28;19920;-35
2022/09/18 00:13:42;;;;;;;;;;;;;;;11.53;91.91;101637.59;5094299;28;19912;-35
2022/09/18 00:16:10;;;;;;;;;;;;;;;11.53;91.61;101635.72;5094306;28;20334;-35
2022/09/18 00:18:35;;;;;;;;;;;;;;;11.54;91.77;101631.13;5094400;28;20012;-34
2022/09/18 00:21:11;;;;;;;;;;;;;;;11.51;93.03;101635.09;5093919;28;20367;-35
2022/09/18 00:23:36;;;;;;;;;;;;;;;11.49;92.13;101641.78;5094378;28;20302;-34
2022/09/18 00:26:02;;;;;;;;;;;;;;;11.50;93.61;101644.28;5093981;28;20015;-35
2022/09/18 00:28:27;;;;;;;;;;;;;;;11.48;92.47;101640.97;5094421;28;19912;-34
2022/09/18 00:30:52;;;;;;;;;;;;;;;11.50;91.44;101633.44;5094600;28;19957;-34
2022/09/18 00:33:18;;;;;;;;;;;;;;;11.49;92.18;101629.09;5094094;28;19912;-35
2022/09/18 00:35:44;;;;;;;;;;;;;;;11.50;92.13;101632.63;5094005;28;19916;-35
2022/09/18 00:38:09;;;;;;;;;;;;;;;11.50;91.60;101633.44;5094455;28;19919;-35
2022/09/18 00:40:35;;;;;;;;;;;;;;;11.50;91.99;101636.16;5094142;28;20340;-35
2022/09/18 00:43:16;;;;;;;;;;;;;;;11.49;91.87;101639.91;5094075;28;19912;-35
2022/09/18 00:45:41;;;;;;;;;;;;;;;11.50;91.74;101644.28;5093978;28;20310;-35
2022/09/18 00:48:07;;;;;;;;;;;;;;;11.50;92.01;101638.88;5094255;28;19919;-35
2022/09/18 00:50:32;;;;;;;;;;;;;;;11.52;91.44;101642.19;5093327;28;19912;-35
2022/09/18 00:53:05;;;;;;;;;;;;;;;11.53;91.28;101632.19;5094000;28;19926;-34
2022/09/18 00:55:34;;;;;;;;;;;;;;;11.55;91.44;101647.16;5093916;28;19973;-34
2022/09/18 00:58:00;;;;;;;;;;;;;;;11.56;91.08;101658.81;5094150;28;19912;-35
2022/09/18 01:00:26;;;;;;;;;;;;;;;11.56;91.31;101651.53;5093610;28;19911;-35
2022/09/18 01:02:52;;;;;;;;;;;;;;;11.56;91.71;101643.41;5093616;28;20425;-34
2022/09/18 01:05:29;;;;;;;;;;;;;;;11.56;91.61;101648.81;5093509;28;19912;-34
2022/09/18 01:07:54;;;;;;;;;;;;;;;11.57;91.89;101644.25;5093910;28;19912;-34
2022/09/18 01:10:19;;;;;;;;;;;;;;;11.54;92.52;101640.09;5093322;28;19931;-35
2022/09/18 01:12:54;;;;;;;;;;;;;;;11.53;91.89;101648.44;5093846;28;19912;-35
2022/09/18 01:15:20;;;;;;;;;;;;;;;11.50;93.35;101644.28;5093490;28;20271;-35
2022/09/18 01:18:04;;;;;;;;;;;;;;;11.50;92.88;101646.16;5093742;28;19916;-35
2022/09/18 01:20:44;;;;;;;;;;;;;;;11.49;92.62;101630.97;5093772;28;20260;-34
2022/09/18 01:23:32;;;;;;;;;;;;;;;11.47;92.91;101628.47;5093967;28;19972;-34
2022/09/18 01:26:00;;;;;;;;;;;;;;;11.48;93.19;101653.69;5050486;28;19941;-34
2022/09/18 01:28:44;;;;;;;;;;;;;;;11.47;94.44;101649.31;5051513;28;19995;-35
2022/09/18 01:31:16;;;;;;;;;;;;;;;11.46;94.31;101632.22;5050847;28;20007;-35
2022/09/18 01:33:44;;;;;;;;;;;;;;;11.45;93.95;101627.84;5051319;28;19920;-35
2022/09/18 01:36:12;;;;;;;;;;;;;;;11.45;94.47;101635.16;5052652;28;19950;-35
2022/09/18 01:38:41;;;;;;;;;;;;;;;11.43;93.93;101631.84;5055185;28;19966;-36
2022/09/18 01:41:10;;;;;;;;;;;;;;;11.42;93.25;101636.44;5054679;28;19971;-35
2022/09/18 01:43:37;;;;;;;;;;;;;;;11.41;94.83;101636.63;5055069;28;19923;-33
2022/09/18 01:46:05;;;;;;;;;;;;;;;11.40;93.55;101630.38;5055079;28;19920;-34
2022/09/18 01:48:34;;;;;;;;;;;;;;;11.42;94.01;101631.00;5054493;28;20003;-34
2022/09/18 01:51:04;;;;;;;;;;;;;;;11.41;92.97;101636.63;5054602;28;19935;-34
2022/09/18 01:53:32;;;;;;;;;;;;;;;11.42;92.84;101632.88;5054341;28;19987;-34
2022/09/18 01:56:04;;;;;;;;;;;;;;;11.43;93.17;101623.72;5054304;28;19912;-34
2022/09/18 01:58:31;;;;;;;;;;;;;;;11.42;93.20;101616.63;5054955;28;19935;-34
2022/09/18 02:00:59;;;;;;;;;;;;;;;11.41;92.94;101634.75;5054175;28;19912;-34
2022/09/18 02:03:26;;;;;;;;;;;;;;;11.41;92.16;101634.75;5084032;28;19935;-34
2022/09/18 02:06:02;;;;;;;;;;;;;;;11.41;92.70;101623.91;5096585;28;20348;-35
2022/09/18 02:08:27;;;;;;;;;;;;;;;11.43;93.01;101626.44;5096835;28;19912;-35
2022/09/18 02:11:01;;;;;;;;;;;;;;;11.40;93.60;101619.56;5096956;28;19977;-35
2022/09/18 02:13:29;;;;;;;;;;;;;;;11.39;93.28;101626.03;5096044;28;20292;-35
2022/09/18 02:15:56;;;;;;;;;;;;;;;11.39;93.16;101620.59;5096299;28;19912;-35
2022/09/18 02:18:25;;;;;;;;;;;;;;;11.40;93.13;101613.31;5096877;28;20245;-35
2022/09/18 02:20:51;;;;;;;;;;;;;;;11.40;93.11;101608.72;5096211;28;20405;-34
2022/09/18 02:23:17;;;;;;;;;;;;;;;11.41;92.96;101604.97;5096491;28;20351;-34
2022/09/18 02:25:54;;;;;;;;;;;;;;;11.41;92.79;101602.25;5096153;28;19912;-34
2022/09/18 02:28:21;;;;;;;;;;;;;;;11.39;93.41;101598.94;5096837;28;20288;-34
2022/09/18 02:30:47;;;;;;;;;;;;;;;11.37;94.36;101601.06;5096328;28;20475;-34
2022/09/18 02:33:25;;;;;;;;;;;;;;;11.36;94.33;101602.06;5096856;28;19950;-34
2022/09/18 02:36:09;;;;;;;;;;;;;;;11.35;94.94;101598.53;5096804;28;19912;-34
2022/09/18 02:38:41;;;;;;;;;;;;;;;11.35;94.81;101597.72;5096158;28;19912;-34
2022/09/18 02:41:24;;;;;;;;;;;;;;;11.34;94.87;101598.75;5096366;28;20049;-34
2022/09/18 02:43:57;;;;;;;;;;;;;;;11.32;95.43;101598.13;5096079;28;19924;-34
2022/09/18 02:46:35;;;;;;;;;;;;;;;11.30;94.77;101595.66;5095381;28;19912;-34
2022/09/18 02:49:10;;;;;;;;;;;;;;;11.30;94.39;101605.66;5095670;28;20004;-34
2022/09/18 02:51:41;;;;;;;;;;;;;;;11.33;95.36;101599.81;5096116;28;19919;-34
2022/09/18 02:54:10;;;;;;;;;;;;;;;11.33;96.04;101597.94;5096193;28;19916;-34
2022/09/18 02:56:41;;;;;;;;;;;;;;;11.34;96.19;101590.66;5095832;28;19919;-34
2022/09/18 02:59:25;;;;;;;;;;;;;;;11.32;95.60;101587.31;5095703;28;19916;-35
2022/09/18 03:01:51;;;;;;;;;;;;;;;11.32;95.78;101593.56;5096145;28;20257;-35
2022/09/18 03:04:19;;;;;;;;;;;;;;;11.33;95.77;101591.69;5096114;28;19916;-35
2022/09/18 03:06:45;;;;;;;;;;;;;;;11.33;96.47;101594.41;5095465;28;19948;-35
2022/09/18 03:09:10;;;;;;;;;;;;;;;11.32;95.63;101587.31;5096364;28;20017;-35
2022/09/18 03:11:36;;;;;;;;;;;;;;;11.30;95.41;101590.25;5095428;28;20336;-34
2022/09/18 03:14:01;;;;;;;;;;;;;;;11.30;95.79;101592.94;5096038;28;19912;-34
2022/09/18 03:16:26;;;;;;;;;;;;;;;11.31;95.60;101586.47;5095374;28;19918;-34
2022/09/18 03:18:51;;;;;;;;;;;;;;;11.32;95.02;101587.31;5095443;28;19912;-34
2022/09/18 03:21:17;;;;;;;;;;;;;;;11.32;96.13;101579.19;5095005;28;19965;-35
2022/09/18 03:23:42;;;;;;;;;;;;;;;11.32;97.17;101582.75;5095058;28;19918;-35
2022/09/18 03:26:07;;;;;;;;;;;;;;;11.31;96.47;101578.34;5095422;28;20001;-35
2022/09/18 03:28:32;;;;;;;;;;;;;;;11.32;97.00;101577.34;5095302;28;19912;-35
2022/09/18 03:30:58;;;;;;;;;;;;;;;11.32;96.94;101573.75;5095380;28;19912;-34
2022/09/18 03:33:23;;;;;;;;;;;;;;;11.32;96.55;101562.94;5095401;28;20360;-34
2022/09/18 03:35:48;;;;;;;;;;;;;;;11.33;96.10;101570.03;5095121;28;19912;-34
2022/09/18 03:38:14;;;;;;;;;;;;;;;11.32;97.38;101571.06;5095011;28;20383;-34
2022/09/18 03:40:42;;;;;;;;;;;;;;;11.32;96.12;101568.34;5094633;28;19912;-34
2022/09/18 03:43:07;;;;;;;;;;;;;;;11.32;96.63;101568.34;5094680;28;19911;-34
2022/09/18 03:45:33;;;;;;;;;;;;;;;11.34;96.62;101579.81;5094927;28;19918;-34
2022/09/18 03:47:58;;;;;;;;;;;;;;;11.33;96.20;101570.84;5096158;28;20018;-34
2022/09/18 03:50:23;;;;;;;;;;;;;;;11.34;96.34;101566.28;5094516;28;19912;-35
2022/09/18 03:52:49;;;;;;;;;;;;;;;11.34;96.03;101556.25;5094510;28;19912;-34
2022/09/18 03:55:14;;;;;;;;;;;;;;;11.34;96.34;101556.25;5094463;28;20265;-34
2022/09/18 03:57:39;;;;;;;;;;;;;;;11.35;96.67;101559.81;5095219;28;20275;-34
2022/09/18 04:00:05;;;;;;;;;;;;;;;11.34;97.12;101553.56;5095209;28;19915;-34
2022/09/18 04:02:30;;;;;;;;;;;;;;;11.32;96.75;101547.53;5095113;28;20334;-34
2022/09/18 04:04:55;;;;;;;;;;;;;;;11.33;96.09;101553.78;5094607;28;19916;-34
2022/09/18 04:07:21;;;;;;;;;;;;;;;11.33;96.64;101548.38;5094279;28;19912;-34
2022/09/18 04:09:46;;;;;;;;;;;;;;;11.34;96.91;101550.03;5094495;28;19912;-35
2022/09/18 04:12:11;;;;;;;;;;;;;;;11.34;96.35;101555.44;5095327;28;19977;-34
2022/09/18 04:14:36;;;;;;;;;;;;;;;11.35;95.86;101554.38;5094360;28;19961;-34
2022/09/18 04:17:02;;;;;;;;;;;;;;;11.37;96.00;101559.56;5094064;28;19916;-35
2022/09/18 04:19:27;;;;;;;;;;;;;;;11.37;96.48;101557.72;5094198;28;19970;-35
2022/09/18 04:21:52;;;;;;;;;;;;;;;11.38;97.23;101548.53;5094275;28;19912;-34
2022/09/18 04:24:18;;;;;;;;;;;;;;;11.38;96.70;101553.97;5094259;28;19941;-35
2022/09/18 04:26:43;;;;;;;;;;;;;;;11.37;96.40;101551.44;5094470;28;19912;-35
2022/09/18 04:29:08;;;;;;;;;;;;;;;11.36;96.76;101542.50;5094195;28;20278;-34
2022/09/18 04:31:33;;;;;;;;;;;;;;;11.35;97.09;101548.97;5093536;28;19984;-34
2022/09/18 04:33:59;;;;;;;;;;;;;;;11.35;96.52;101557.91;5094251;28;19964;-35
2022/09/18 04:36:24;;;;;;;;;;;;;;;11.35;96.90;101555.22;5094588;28;20271;-34
2022/09/18 04:38:49;;;;;;;;;;;;;;;11.34;96.13;101558.97;5094103;28;19912;-34
2022/09/18 04:41:14;;;;;;;;;;;;;;;11.35;96.31;101557.09;5093868;28;19927;-35
2022/09/18 04:43:39;;;;;;;;;;;;;;;11.33;96.72;101560.03;5094639;28;19912;-34
2022/09/18 04:46:05;;;;;;;;;;;;;;;11.32;96.97;101558.38;5093860;28;19941;-34
2022/09/18 04:48:30;;;;;;;;;;;;;;;11.34;96.58;101560.84;5094086;28;20069;-35
2022/09/18 04:50:55;;;;;;;;;;;;;;;11.33;96.97;101553.78;5093719;28;19916;-34
2022/09/18 04:53:20;;;;;;;;;;;;;;;11.32;96.68;101552.09;5094083;28;19927;-34
2022/09/18 04:55:46;;;;;;;;;;;;;;;11.32;96.84;101549.41;5093712;28;19919;-34
2022/09/18 04:58:12;;;;;;;;;;;;;;;11.29;96.87;101555.28;5093837;28;19974;-34
2022/09/18 05:00:38;;;;;;;;;;;;;;;11.28;96.84;101545.50;5093681;28;19912;-34
2022/09/18 05:03:03;;;;;;;;;;;;;;;11.26;97.35;101553.81;5094432;28;20363;-34
2022/09/18 05:05:29;;;;;;;;;;;;;;;11.26;96.87;101552.97;5093636;28;19912;-34
2022/09/18 05:07:57;;;;;;;;;;;;;;;11.27;97.23;101558.22;5094450;28;19912;-34
2022/09/18 05:10:22;;;;;;;;;;;;;;;11.25;98.00;101557.56;5092996;28;19969;-34
2022/09/18 05:12:48;;;;;;;;;;;;;;;11.25;97.26;101564.88;5094057;28;19915;-34
2022/09/18 05:15:13;;;;;;;;;;;;;;;11.24;97.38;101558.63;5093490;28;19969;-33
2022/09/18 05:17:39;;;;;;;;;;;;;;;11.23;97.60;101551.56;5094009;28;20247;-34
2022/09/18 05:20:05;;;;;;;;;;;;;;;11.23;99.23;101558.84;5093601;28;19935;-34
2022/09/18 05:22:30;;;;;;;;;;;;;;;11.22;99.05;101551.75;5093653;28;19918;-34
2022/09/18 05:24:56;;;;;;;;;;;;;;;11.23;98.88;101554.25;5093379;28;20019;-34
2022/09/18 05:27:21;;;;;;;;;;;;;;;11.23;98.47;101551.56;5093653;28;20278;-34
2022/09/18 05:29:46;;;;;;;;;;;;;;;11.24;98.00;101553.22;5093002;28;19968;-34
2022/09/18 05:32:12;;;;;;;;;;;;;;;11.25;98.10;101554.88;5093589;28;19918;-34
2022/09/18 05:34:37;;;;;;;;;;;;;;;11.25;98.74;101562.16;5093292;28;19912;-34
2022/09/18 05:37:02;;;;;;;;;;;;;;;11.25;98.81;101560.28;5093234;28;19952;-34
2022/09/18 05:39:27;;;;;;;;;;;;;;;11.26;98.65;101556.53;5092852;28;20010;-34
2022/09/18 05:41:52;;;;;;;;;;;;;;;11.26;98.79;101556.53;5093381;28;19912;-34
2022/09/18 05:44:18;;;;;;;;;;;;;;;11.27;99.33;101562.75;5093513;28;19927;-34
2022/09/18 05:46:47;;;;;;;;;;;;;;;11.27;98.90;101560.06;5093421;28;19912;-33
2022/09/18 05:49:12;;;;;;;;;;;;;;;11.27;98.25;101557.34;5093433;28;19912;-33
2022/09/18 05:51:38;;;;;;;;;;;;;;;11.27;99.15;101552.78;5093095;28;20022;-34
2022/09/18 05:54:03;;;;;;;;;;;;;;;11.30;99.00;101565.03;5092770;28;19919;-34
2022/09/18 05:56:28;;;;;;;;;;;;;;;11.31;98.75;101566.69;5093882;28;19912;-34
2022/09/18 05:58:54;;;;;;;;;;;;;;;11.33;98.75;101567.31;5093220;28;20370;-34
2022/09/18 06:01:19;;;;;;;;;;;;;;;11.33;100.00;101583.56;5092960;28;19923;-35
2022/09/18 06:03:47;;;;;;;;;;;;;;;11.31;100.00;101583.78;5093382;28;20007;-35
2022/09/18 06:06:12;;;;;;;;;;;;;;;11.34;98.96;101577.09;5092981;28;19947;-35
2022/09/18 06:08:38;;;;;;;;;;;;;;;11.35;98.75;101555.22;5092348;28;19986;-35
2022/09/18 06:11:03;;;;;;;;;;;;;;;11.40;98.99;101561.84;5093053;28;19920;-34
2022/09/18 06:13:28;;;;;;;;;;;;;;;11.41;98.66;101549.97;5093515;28;19912;-35
2022/09/18 06:15:54;;;;;;;;;;;;;;;11.43;98.20;101559.53;5092837;28;19912;-35
2022/09/18 06:18:20;;;;;;;;;;;;;;;11.46;98.13;101558.25;5093410;28;19912;-34
2022/09/18 06:20:55;;;;;;;;;;;;;;;11.50;97.80;101554.06;5092514;28;20011;-35
2022/09/18 06:23:22;;;;;;;;;;;;;;;11.56;97.98;101556.72;5094920;28;19990;-34
2022/09/18 06:25:47;;;;;;;;;;;;;;;11.58;97.85;101548.41;5097153;28;20279;-34
2022/09/18 06:28:12;;;;;;;;;;;;;;;11.63;98.43;101547.72;5096805;28;19912;-34
2022/09/18 06:30:37;;;;;;;;;;;;;;;11.66;98.21;101549.97;5096426;28;19912;-34
2022/09/18 06:33:08;;;;;;;;;;;;;;;11.68;97.92;101542.47;5096135;28;20408;-35
2022/09/18 06:35:33;;;;;;;;;;;;;;;11.72;97.85;101533.69;5096019;28;19916;-34
2022/09/18 06:38:00;;;;;;;;;;;;;;;11.75;97.67;101535.94;5096207;28;20340;-34
2022/09/18 06:40:25;;;;;;;;;;;;;;;11.79;98.06;101548.00;5096895;28;20306;-35
2022/09/18 06:42:54;;;;;;;;;;;;;;;11.80;97.38;101552.34;5096116;28;19994;-35
2022/09/18 06:45:19;;;;;;;;;;;;;;;11.79;98.31;101566.97;5096590;28;20257;-34
2022/09/18 06:47:44;;;;;;;;;;;;;;;11.78;97.70;101564.50;5094827;28;19961;-35
2022/09/18 06:50:10;;;;;;;;;;;;;;;11.79;97.81;101571.56;5095879;28;19942;-34
2022/09/18 06:52:35;;;;;;;;;;;;;;;11.80;98.13;101567.78;5096131;28;19920;-35
2022/09/18 06:55:00;;;;;;;;;;;;;;;11.80;97.92;101563.19;5096468;28;19938;-38
2022/09/18 06:57:25;;;;;;;;;;;;;;;11.80;97.88;101552.34;5096044;28;19970;-35
2022/09/18 06:59:50;;;;;;;;;;;;;;;11.78;99.05;101553.66;5096189;28;20034;-35
2022/09/18 07:02:16;;;;;;;;;;;;;;;11.77;98.65;101547.41;5095939;28;19957;-35
2022/09/18 07:04:41;;;;;;;;;;;;;;;11.78;98.44;101548.22;5095889;28;19973;-35
2022/09/18 07:07:06;;;;;;;;;;;;;;;11.76;98.43;101548.47;5095880;28;19915;-34
2022/09/18 07:09:31;;;;;;;;;;;;;;;11.79;98.48;101549.88;5095806;28;20421;-35
2022/09/18 07:11:57;;;;;;;;;;;;;;;11.81;99.24;101551.34;5095772;28;19916;-35
2022/09/18 07:14:22;;;;;;;;;;;;;;;11.81;98.58;101551.34;5094489;28;19912;-35
2022/09/18 07:16:47;;;;;;;;;;;;;;;11.81;98.46;101553.22;5095346;28;19964;-35
2022/09/18 07:19:12;;;;;;;;;;;;;;;11.81;98.13;101551.34;5095471;28;19957;-34
2022/09/18 07:21:38;;;;;;;;;;;;;;;11.82;98.19;101560.31;5095514;28;19912;-34
2022/09/18 07:24:04;;;;;;;;;;;;;;;11.83;99.69;101551.13;5095652;28;19920;-34
2022/09/18 07:26:29;;;;;;;;;;;;;;;11.83;98.93;101551.13;5096023;28;20320;-35
2022/09/18 07:28:55;;;;;;;;;;;;;;;11.85;98.46;101543.59;5095281;28;20434;-35
2022/09/18 07:31:20;;;;;;;;;;;;;;;11.88;99.06;101535.03;5095470;28;20027;-35
2022/09/18 07:33:49;;;;;;;;;;;;;;;11.90;99.52;101524.78;5095070;28;20333;-35
2022/09/18 07:36:14;;;;;;;;;;;;;;;11.94;99.45;101534.13;5095168;28;19919;-34
2022/09/18 07:38:42;;;;;;;;;;;;;;;11.99;99.63;101531.59;5095051;28;19912;-35
2022/09/18 07:41:07;;;;;;;;;;;;;;;12.03;99.74;101527.38;5095420;28;19965;-35
2022/09/18 07:43:33;;;;;;;;;;;;;;;12.09;99.44;101517.50;5094983;28;19912;-34
2022/09/18 07:45:58;;;;;;;;;;;;;;;12.18;99.89;101523.47;5095159;28;20011;-34
2022/09/18 07:48:23;;;;;;;;;;;;;;;12.22;100.00;101520.09;5094640;28;19912;-34
2022/09/18 07:50:48;;;;;;;;;;;;;;;12.26;100.00;101515.06;5094894;28;19912;-34
2022/09/18 07:53:15;;;;;;;;;;;;;;;12.27;100.00;101514.00;5094911;28;19970;-34
2022/09/18 07:55:44;;;;;;;;;;;;;;;12.31;100.00;101524.16;5094419;28;19947;-34
2022/09/18 07:58:09;;;;;;;;;;;;;;;12.37;100.00;101514.28;5094989;28;19920;-34
2022/09/18 08:00:35;;;;;;;;;;;;;;;12.46;100.00;101512.09;5094829;28;20317;-34
2022/09/18 08:03:02;;;;;;;;;;;;;;;12.54;100.00;101520.78;5094890;28;19939;-34
2022/09/18 08:05:27;;;;;;;;;;;;;;;12.59;100.00;101523.63;5094559;28;19916;-34
2022/09/18 08:07:52;;;;;;;;;;;;;;;12.62;100.00;101535.91;5094575;28;20336;-34
2022/09/18 08:10:17;;;;;;;;;;;;;;;12.60;100.00;101540.75;5094150;28;19911;-34
2022/09/18 08:12:42;;;;;;;;;;;;;;;12.55;100.00;101538.69;5094712;28;19918;-34
2022/09/18 08:15:08;;;;;;;;;;;;;;;12.56;100.00;101539.53;5095077;28;19915;-34
2022/09/18 08:17:34;;;;;;;;;;;;;;;12.54;100.00;101537.06;5095075;28;20294;-34
2022/09/18 08:19:59;;;;;;;;;;;;;;;12.55;100.00;101532.44;5094163;28;19919;-34
2022/09/18 08:22:24;;;;;;;;;;;;;;;12.50;100.00;101525.00;5094695;28;19919;-34
2022/09/18 08:24:49;;;;;;;;;;;;;;;12.60;100.00;101538.84;5094132;28;19920;-35
2022/09/18 08:27:14;;;;;;;;;;;;;;;12.65;100.00;101530.03;5094213;28;19912;-35
2022/09/18 08:29:41;;;;;;;;;;;;;;;12.75;100.00;101521.34;5094245;28;20284;-35
2022/09/18 08:32:06;;;;;;;;;;;;;;;12.82;100.00;101514.75;5094440;28;20004;-34
2022/09/18 08:34:31;;;;;;;;;;;;;;;12.93;100.00;101523.16;5093710;28;19912;-35
2022/09/18 08:36:57;;;;;;;;;;;;;;;12.99;100.00;101530.41;5094469;28;20326;-34
2022/09/18 08:39:22;;;;;;;;;;;;;;;13.11;100.00;101536.72;5113727;28;19916;-35
2022/09/18 08:41:54;;;;;;;;;;;;;;;13.21;100.00;101531.53;5112778;28;19911;-35
2022/09/18 08:44:29;;;;;;;;;;;;;;;13.26;100.00;101528.16;5114136;28;20007;-35
2022/09/18 08:47:07;;;;;;;;;;;;;;;13.29;100.00;101523.09;5114037;28;19957;-35
2022/09/18 08:49:35;;;;;;;;;;;;;;;13.33;100.00;101520.75;5104905;28;20014;-35
2022/09/18 08:52:03;;;;;;;;;;;;;;;13.35;100.00;101524.06;5094158;28;20347;-35
2022/09/18 08:54:47;;;;;;;;;;;;;;;13.35;100.00;101521.34;5093775;28;19912;-35
2022/09/18 08:57:18;;;;;;;;;;;;;;;13.34;100.00;101520.50;5093433;28;19987;-35
2022/09/18 08:59:47;;;;;;;;;;;;;;;13.37;100.00;101508.34;5100830;28;19924;-35
2022/09/18 09:02:20;;;;;;;;;;;;;;;13.38;100.00;101526.31;5113688;28;20315;-35
2022/09/18 09:04:45;;;;;;;;;;;;;;;13.44;100.00;101524.56;5113930;28;20397;-35
2022/09/18 09:07:16;;;;;;;;;;;;;;;13.48;100.00;101521.13;5113653;28;19912;-35
2022/09/18 09:10:02;;;;;;;;;;;;;;;13.49;100.00;101533.66;5113837;28;19934;-35
2022/09/18 09:12:46;;;;;;;;;;;;;;;13.51;100.00;101531.53;5113840;28;19962;-35
2022/09/18 09:15:17;;;;;;;;;;;;;;;13.51;100.00;101530.69;5113475;28;20067;-35
2022/09/18 09:17:58;;;;;;;;;;;;;;;13.48;100.00;101536.63;5114346;28;19912;-35
2022/09/18 09:20:41;;;;;;;;;;;;;;;13.45;100.00;101535.19;5113753;28;19994;-35
2022/09/18 09:23:12;;;;;;;;;;;;;;;13.44;100.00;101538.13;5113638;28;20421;-35
2022/09/18 09:25:43;;;;;;;;;;;;;;;13.42;100.00;101534.81;5113455;28;19912;-35
2022/09/18 09:28:15;;;;;;;;;;;;;;;13.39;99.93;101534.22;5113762;28;20266;-35
2022/09/18 09:30:43;;;;;;;;;;;;;;;13.38;100.00;101531.75;5113656;28;20021;-34
2022/09/18 09:33:20;;;;;;;;;;;;;;;13.41;100.00;101536.69;5114067;28;19919;-34
2022/09/18 09:35:49;;;;;;;;;;;;;;;13.44;100.00;101535.41;5113407;28;19972;-34
2022/09/18 09:38:28;;;;;;;;;;;;;;;13.40;100.00;101533.16;5113859;28;19912;-34
2022/09/18 09:40:55;;;;;;;;;;;;;;;13.42;100.00;101527.50;5113908;28;19912;-33
2022/09/18 09:43:26;;;;;;;;;;;;;;;13.40;100.00;101518.75;5114245;28;19934;-34
2022/09/18 09:45:54;;;;;;;;;;;;;;;13.35;99.96;101519.44;5113216;28;19919;-35
2022/09/18 09:48:38;;;;;;;;;;;;;;;13.30;99.52;101513.88;5113700;28;19911;-36
2022/09/18 09:51:22;;;;;;;;;;;;;;;13.28;99.73;101512.47;5112107;28;20343;-35
2022/09/18 09:53:48;;;;;;;;;;;;;;;13.24;98.99;101495.00;5112384;28;20031;-34
2022/09/18 09:56:37;;;;;;;;;;;;;;;13.25;98.65;101504.78;5113860;28;19935;-34
2022/09/18 09:59:21;;;;;;;;;;;;;;;13.29;98.86;101505.97;5117609;28;19911;-34
2022/09/18 10:01:58;;;;;;;;;;;;;;;13.33;97.89;101499.84;5117305;28;20010;-34
2022/09/18 10:04:45;;;;;;;;;;;;;;;13.39;97.86;101503.53;5117553;28;20048;-34
2022/09/18 10:07:20;;;;;;;;;;;;;;;13.47;98.07;101496.91;5116787;28;19990;-34
2022/09/18 10:09:54;;;;;;;;;;;;;;;13.52;97.28;101494.34;5117174;28;19973;-34
2022/09/18 10:12:22;;;;;;;;;;;;;;;13.56;97.16;101496.31;5118041;28;19919;-34
2022/09/18 10:14:48;;;;;;;;;;;;;;;13.60;96.75;101480.38;5116905;28;19961;-34
2022/09/18 10:17:15;;;;;;;;;;;;;;;13.69;96.96;101480.88;5117554;28;20318;-34
2022/09/18 10:19:42;;;;;;;;;;;;;;;13.80;97.33;101485.47;5116955;28;20010;-34
2022/09/18 10:22:10;;;;;;;;;;;;;;;13.86;97.15;101484.53;5117566;28;19912;-34
2022/09/18 10:24:43;;;;;;;;;;;;;;;13.91;96.62;101482.75;5116934;28;20320;-34
2022/09/18 10:27:10;;;;;;;;;;;;;;;13.99;96.91;101489.72;5117728;27;20028;-34
2022/09/18 10:29:35;;;;;;;;;;;;;;;14.04;96.45;101494.44;5117075;28;20329;-34
2022/09/18 10:32:01;;;;;;;;;;;;;;;14.06;95.90;101497.75;5117344;28;19919;-34
2022/09/18 10:34:30;;;;;;;;;;;;;;;14.05;94.80;101493.38;5116743;28;20377;-34
2022/09/18 10:36:55;;;;;;;;;;;;;;;14.03;94.91;101499.06;5116753;28;19911;-34
2022/09/18 10:39:31;;;;;;;;;;;;;;;14.03;95.01;101501.78;5116714;28;19964;-34
2022/09/18 10:41:58;;;;;;;;;;;;;;;13.99;94.50;101505.19;5116865;28;20277;-34
2022/09/18 10:44:25;;;;;;;;;;;;;;;13.95;94.56;101514.88;5116626;28;20282;-34
2022/09/18 10:46:52;;;;;;;;;;;;;;;13.90;94.95;101524.56;5116960;28;19919;-34
2022/09/18 10:49:21;;;;;;;;;;;;;;;13.82;94.52;101511.38;5116592;28;19912;-34
2022/09/18 10:51:46;;;;;;;;;;;;;;;13.73;94.50;101525.53;5114854;28;20276;-34
2022/09/18 10:54:17;;;;;;;;;;;;;;;13.58;93.21;101520.56;5115074;28;19918;-34
2022/09/18 10:56:42;;;;;;;;;;;;;;;13.42;93.55;101516.66;5117374;28;20423;-34
2022/09/18 10:59:31;;;;;;;;;;;;;;;13.32;94.05;101519.94;5116348;28;20034;-34
2022/09/18 11:01:58;;;;;;;;;;;;;;;13.28;94.29;101513.31;5116842;28;19996;-34
2022/09/18 11:04:23;;;;;;;;;;;;;;;13.29;94.67;101505.97;5116187;28;19918;-34
2022/09/18 11:06:48;;;;;;;;;;;;;;;13.33;94.49;101504.47;5116218;28;19923;-34
2022/09/18 11:09:17;;;;;;;;;;;;;;;13.39;94.76;101503.53;5115509;28;19969;-34
2022/09/18 11:11:45;;;;;;;;;;;;;;;13.47;95.79;101510.47;5116438;28;19951;-34
2022/09/18 11:14:16;;;;;;;;;;;;;;;13.50;95.02;101516.28;5115790;28;19968;-34
2022/09/18 11:16:42;;;;;;;;;;;;;;;13.54;95.82;101519.38;5116266;28;19912;-34
2022/09/18 11:19:11;;;;;;;;;;;;;;;13.56;95.52;101512.63;5115592;28;20381;-34
2022/09/18 11:21:42;;;;;;;;;;;;;;;13.57;95.28;101508.88;5116152;28;19919;-34
2022/09/18 11:24:15;;;;;;;;;;;;;;;13.59;95.35;101516.78;5115433;28;19918;-34
2022/09/18 11:26:47;;;;;;;;;;;;;;;13.62;94.96;101519.03;5115761;28;19980;-35
2022/09/18 11:29:22;;;;;;;;;;;;;;;13.64;94.94;101520.44;5115516;28;20435;-34
2022/09/18 11:31:54;;;;;;;;;;;;;;;13.66;94.97;101522.91;5116447;28;19912;-34
2022/09/18 11:34:22;;;;;;;;;;;;;;;13.66;95.51;101512.03;5115732;28;19912;-34
2022/09/18 11:36:48;;;;;;;;;;;;;;;13.62;95.37;101505.44;5116481;28;20319;-34
2022/09/18 11:39:18;;;;;;;;;;;;;;;13.58;95.51;101515.94;5115725;28;19965;-34
2022/09/18 11:41:46;;;;;;;;;;;;;;;13.52;95.17;101525.06;5115818;28;19954;-34
2022/09/18 11:44:30;;;;;;;;;;;;;;;13.48;95.14;101520.31;5115544;28;19964;-34
2022/09/18 11:46:55;;;;;;;;;;;;;;;13.38;94.93;101518.16;5116193;28;19992;-35
2022/09/18 11:49:23;;;;;;;;;;;;;;;13.33;95.67;101526.19;5115107;28;20377;-35
2022/09/18 11:51:52;;;;;;;;;;;;;;;13.30;95.58;101532.06;5116067;28;20229;-35
2022/09/18 11:54:35;;;;;;;;;;;;;;;13.26;95.61;101536.31;5115215;28;20283;-35
2022/09/18 11:57:02;;;;;;;;;;;;;;;13.19;95.84;101541.81;5115494;28;19912;-34
2022/09/18 11:59:31;;;;;;;;;;;;;;;13.14;96.50;101538.97;5115307;28;19911;-35
2022/09/18 12:01:59;;;;;;;;;;;;;;;13.09;96.15;101538.84;5115184;28;20390;-34
2022/09/18 12:04:43;;;;;;;;;;;;;;;13.03;96.45;101528.88;5115124;28;19912;-35
2022/09/18 12:07:08;;;;;;;;;;;;;;;13.01;95.91;101531.84;5115225;28;20347;-34
2022/09/18 12:09:43;;;;;;;;;;;;;;;13.01;96.94;101531.84;5114997;28;19911;-34
2022/09/18 12:12:12;;;;;;;;;;;;;;;12.99;98.02;101536.69;5116096;28;19922;-34
2022/09/18 12:14:44;;;;;;;;;;;;;;;12.95;97.54;101540.91;5115620;28;19916;-34
2022/09/18 12:17:18;;;;;;;;;;;;;;;12.92;99.04;101541.34;5114853;27;19918;-34
2022/09/18 12:19:49;;;;;;;;;;;;;;;12.88;98.48;101530.16;5114998;28;19912;-33
2022/09/18 12:22:33;;;;;;;;;;;;;;;12.86;98.82;101543.09;5115629;28;19912;-35
2022/09/18 12:24:58;;;;;;;;;;;;;;;12.87;99.31;101541.22;5114690;28;20008;-34
2022/09/18 12:27:26;;;;;;;;;;;;;;;12.87;98.87;101536.59;5114935;28;19915;-34
2022/09/18 12:29:51;;;;;;;;;;;;;;;12.87;99.09;101527.63;5114530;28;19919;-34
2022/09/18 12:32:22;;;;;;;;;;;;;;;12.91;99.39;101526.13;5114495;28;19912;-34
2022/09/18 12:35:06;;;;;;;;;;;;;;;12.92;98.66;101518.81;5114405;28;19935;-34
2022/09/18 12:37:49;;;;;;;;;;;;;;;12.94;98.87;101524.84;5114069;28;19912;-34
2022/09/18 12:40:27;;;;;;;;;;;;;;;12.95;98.96;101521.06;5114002;28;19911;-34
2022/09/18 12:42:55;;;;;;;;;;;;;;;12.94;99.34;101522.97;5114376;28;19919;-34